sensor_id;sensor_type;location;lat;lon;timestamp;temperature;humidity
34095;DHT22;20372;47.080;15.410;2022-11-04T00:01:44;10.70;99.90
34095;DHT22;20372;47.080;15.410;2022-11-04T00:04:10;10.70;99.90
34095;DHT22;20372;47.080;15.410;2022-11-04T00:06:36;10.70;99.90
34095;DHT22;20372;47.080;15.410;2022-11-04T00:09:02;10.80;99.90
34095;DHT22;20372;47.080;15.410;2022-11-04T00:11:28;10.90;99.90
34095;DHT22;20372;47.080;15.410;2022-11-04T00:14:13;10.90;99.90
34095;DHT22;20372;47.080;15.410;2022-11-04T00:16:39;11.00;99.90
34095;DHT22;20372;47.080;15.410;2022-11-04T00:19:23;11.00;99.90
34095;DHT22;20372;47.080;15.410;2022-11-04T00:21:49;11.10;99.90
34095;DHT22;20372;47.080;15.410;2022-11-04T00:24:33;11.20;99.90
34095;DHT22;20372;47.080;15.410;2022-11-04T00:27:18;11.10;99.90
34095;DHT22;20372;47.080;15.410;2022-11-04T00:30:03;11.10;99.90
34095;DHT22;20372;47.080;15.410;2022-11-04T00:32:31;11.00;99.90
34095;DHT22;20372;47.080;15.410;2022-11-04T00:35:15;11.00;99.90
34095;DHT22;20372;47.080;15.410;2022-11-04T00:37:41;11.00;99.90
34095;DHT22;20372;47.080;15.410;2022-11-04T00:40:07;10.90;99.90
34095;DHT22;20372;47.080;15.410;2022-11-04T00:42:33;10.90;99.90
34095;DHT22;20372;47.080;15.410;2022-11-04T00:44:58;11.00;99.90
34095;DHT22;20372;47.080;15.410;2022-11-04T00:47:24;10.90;99.90
34095;DHT22;20372;47.080;15.410;2022-11-04T00:49:50;10.90;99.90
34095;DHT22;20372;47.080;15.410;2022-11-04T00:52:15;10.90;99.90
34095;DHT22;20372;47.080;15.410;2022-11-04T00:54:41;11.00;99.90
34095;DHT22;20372;47.080;15.410;2022-11-04T00:57:10;10.90;99.90
34095;DHT22;20372;47.080;15.410;2022-11-04T00:59:36;11.00;99.90
34095;DHT22;20372;47.080;15.410;2022-11-04T01:02:02;10.90;99.90
34095;DHT22;20372;47.080;15.410;2022-11-04T01:04:28;11.00;99.90
34095;DHT22;20372;47.080;15.410;2022-11-04T01:06:53;11.00;99.90
34095;DHT22;20372;47.080;15.410;2022-11-04T01:09:19;11.00;99.90
34095;DHT22;20372;47.080;15.410;2022-11-04T01:11:44;11.00;99.90
34095;DHT22;20372;47.080;15.410;2022-11-04T01:14:10;11.00;99.90
34095;DHT22;20372;47.080;15.410;2022-11-04T01:16:36;11.00;99.90
34095;DHT22;20372;47.080;15.410;2022-11-04T01:19:02;11.00;99.90
34095;DHT22;20372;47.080;15.410;2022-11-04T01:21:27;11.10;99.90
34095;DHT22;20372;47.080;15.410;2022-11-04T01:23:53;11.10;99.90
34095;DHT22;20372;47.080;15.410;2022-11-04T01:26:20;11.10;99.90
34095;DHT22;20372;47.080;15.410;2022-11-04T01:28:46;11.10;99.90
34095;DHT22;20372;47.080;15.410;2022-11-04T01:31:13;11.00;99.90
34095;DHT22;20372;47.080;15.410;2022-11-04T01:33:39;10.90;99.90
34095;DHT22;20372;47.080;15.410;2022-11-04T01:36:05;10.90;99.90
34095;DHT22;20372;47.080;15.410;2022-11-04T01:38:31;11.00;99.90
34095;DHT22;20372;47.080;15.410;2022-11-04T01:40:57;11.00;99.90
34095;DHT22;20372;47.080;15.410;2022-11-04T01:43:30;11.00;99.90
34095;DHT22;20372;47.080;15.410;2022-11-04T01:46:07;11.00;99.90
34095;DHT22;20372;47.080;15.410;2022-11-04T01:48:33;10.90;99.90
34095;DHT22;20372;47.080;15.410;2022-11-04T01:50:59;10.90;99.90
34095;DHT22;20372;47.080;15.410;2022-11-04T01:55:51;10.90;99.90
34095;DHT22;20372;47.080;15.410;2022-11-04T01:58:19;10.80;99.90
34095;DHT22;20372;47.080;15.410;2022-11-04T02:00:46;10.80;99.90
34095;DHT22;20372;47.080;15.410;2022-11-04T02:05:41;10.90;99.90
34095;DHT22;20372;47.080;15.410;2022-11-04T02:08:08;10.90;99.90
34095;DHT22;20372;47.080;15.410;2022-11-04T02:10:35;11.00;99.90
34095;DHT22;20372;47.080;15.410;2022-11-04T02:13:02;11.00;99.90
34095;DHT22;20372;47.080;15.410;2022-11-04T02:20:39;11.00;99.90
34095;DHT22;20372;47.080;15.410;2022-11-04T02:26:01;10.90;99.90
34095;DHT22;20372;47.080;15.410;2022-11-04T02:28:41;10.80;99.90
34095;DHT22;20372;47.080;15.410;2022-11-04T02:36:27;10.80;99.90
34095;DHT22;20372;47.080;15.410;2022-11-04T02:41:25;10.80;99.90
34095;DHT22;20372;47.080;15.410;2022-11-04T02:46:25;10.90;99.90
34095;DHT22;20372;47.080;15.410;2022-11-04T02:53:58;11.10;99.90
34095;DHT22;20372;47.080;15.410;2022-11-04T02:56:25;11.10;99.90
34095;DHT22;20372;47.080;15.410;2022-11-04T02:58:52;11.10;99.90
34095;DHT22;20372;47.080;15.410;2022-11-04T03:01:19;11.10;99.90
34095;DHT22;20372;47.080;15.410;2022-11-04T03:03:50;11.10;99.90
34095;DHT22;20372;47.080;15.410;2022-11-04T03:06:18;11.00;99.90
34095;DHT22;20372;47.080;15.410;2022-11-04T03:08:47;11.10;99.90
34095;DHT22;20372;47.080;15.410;2022-11-04T03:11:14;11.00;99.90
34095;DHT22;20372;47.080;15.410;2022-11-04T03:13:52;11.00;99.90
34095;DHT22;20372;47.080;15.410;2022-11-04T03:16:23;10.90;99.90
34095;DHT22;20372;47.080;15.410;2022-11-04T03:21:19;10.90;99.90
34095;DHT22;20372;47.080;15.410;2022-11-04T03:23:46;10.90;99.90
34095;DHT22;20372;47.080;15.410;2022-11-04T03:26:13;10.80;99.90
34095;DHT22;20372;47.080;15.410;2022-11-04T03:28:50;10.90;99.90
34095;DHT22;20372;47.080;15.410;2022-11-04T03:31:27;10.90;99.90
34095;DHT22;20372;47.080;15.410;2022-11-04T03:33:56;10.90;99.90
34095;DHT22;20372;47.080;15.410;2022-11-04T03:36:22;10.80;99.90
34095;DHT22;20372;47.080;15.410;2022-11-04T03:38:49;10.80;99.90
34095;DHT22;20372;47.080;15.410;2022-11-04T03:42:01;10.80;99.90
34095;DHT22;20372;47.080;15.410;2022-11-04T03:44:00;10.80;99.90
34095;DHT22;20372;47.080;15.410;2022-11-04T03:46:26;10.90;99.90
34095;DHT22;20372;47.080;15.410;2022-11-04T03:48:52;10.80;99.90
34095;DHT22;20372;47.080;15.410;2022-11-04T03:51:18;10.80;99.90
34095;DHT22;20372;47.080;15.410;2022-11-04T03:53:43;10.90;99.90
34095;DHT22;20372;47.080;15.410;2022-11-04T04:03:50;10.80;99.90
34095;DHT22;20372;47.080;15.410;2022-11-04T04:06:22;10.80;99.90
34095;DHT22;20372;47.080;15.410;2022-11-04T04:08:52;10.90;99.90
34095;DHT22;20372;47.080;15.410;2022-11-04T04:11:31;10.90;99.90
34095;DHT22;20372;47.080;15.410;2022-11-04T04:14:05;10.90;99.90
34095;DHT22;20372;47.080;15.410;2022-11-04T04:16:32;10.90;99.90
34095;DHT22;20372;47.080;15.410;2022-11-04T04:19:10;10.80;99.90
34095;DHT22;20372;47.080;15.410;2022-11-04T04:21:43;10.80;99.90
34095;DHT22;20372;47.080;15.410;2022-11-04T04:24:09;10.90;99.90
34095;DHT22;20372;47.080;15.410;2022-11-04T04:26:55;10.90;99.90
34095;DHT22;20372;47.080;15.410;2022-11-04T04:29:47;11.00;99.90
34095;DHT22;20372;47.080;15.410;2022-11-04T04:32:13;11.00;99.90
34095;DHT22;20372;47.080;15.410;2022-11-04T04:34:40;11.00;99.90
34095;DHT22;20372;47.080;15.410;2022-11-04T04:37:19;11.00;99.90
34095;DHT22;20372;47.080;15.410;2022-11-04T04:39:47;11.00;99.90
34095;DHT22;20372;47.080;15.410;2022-11-04T04:42:32;11.00;99.90
34095;DHT22;20372;47.080;15.410;2022-11-04T04:47:51;11.10;99.90
34095;DHT22;20372;47.080;15.410;2022-11-04T04:50:18;11.10;99.90
34095;DHT22;20372;47.080;15.410;2022-11-04T04:52:45;11.10;99.90
34095;DHT22;20372;47.080;15.410;2022-11-04T04:55:12;11.10;99.90
34095;DHT22;20372;47.080;15.410;2022-11-04T04:57:38;11.10;99.90
34095;DHT22;20372;47.080;15.410;2022-11-04T05:00:04;11.20;99.90
34095;DHT22;20372;47.080;15.410;2022-11-04T05:02:30;11.20;99.90
34095;DHT22;20372;47.080;15.410;2022-11-04T05:04:56;11.10;99.90
34095;DHT22;20372;47.080;15.410;2022-11-04T05:07:24;11.20;99.90
34095;DHT22;20372;47.080;15.410;2022-11-04T05:09:49;11.20;99.90
34095;DHT22;20372;47.080;15.410;2022-11-04T05:12:15;11.10;99.90
34095;DHT22;20372;47.080;15.410;2022-11-04T05:14:41;11.10;99.90
34095;DHT22;20372;47.080;15.410;2022-11-04T05:17:07;11.10;99.90
34095;DHT22;20372;47.080;15.410;2022-11-04T05:19:32;11.00;99.90
34095;DHT22;20372;47.080;15.410;2022-11-04T05:21:58;11.00;99.90
34095;DHT22;20372;47.080;15.410;2022-11-04T05:24:24;10.90;99.90
34095;DHT22;20372;47.080;15.410;2022-11-04T05:26:49;10.90;99.90
34095;DHT22;20372;47.080;15.410;2022-11-04T05:29:15;10.90;99.90
34095;DHT22;20372;47.080;15.410;2022-11-04T05:31:40;10.90;99.90
34095;DHT22;20372;47.080;15.410;2022-11-04T05:34:08;10.90;99.90
34095;DHT22;20372;47.080;15.410;2022-11-04T05:36:34;10.90;99.90
34095;DHT22;20372;47.080;15.410;2022-11-04T05:38:59;10.90;99.90
34095;DHT22;20372;47.080;15.410;2022-11-04T05:41:25;10.90;99.90
34095;DHT22;20372;47.080;15.410;2022-11-04T05:43:51;11.00;99.90
34095;DHT22;20372;47.080;15.410;2022-11-04T05:46:17;10.90;99.90
34095;DHT22;20372;47.080;15.410;2022-11-04T05:48:43;11.00;99.90
34095;DHT22;20372;47.080;15.410;2022-11-04T05:51:11;11.10;99.90
34095;DHT22;20372;47.080;15.410;2022-11-04T05:53:38;11.10;99.90
34095;DHT22;20372;47.080;15.410;2022-11-04T05:56:03;11.10;99.90
34095;DHT22;20372;47.080;15.410;2022-11-04T05:58:29;11.20;99.90
34095;DHT22;20372;47.080;15.410;2022-11-04T06:01:09;11.30;99.90
34095;DHT22;20372;47.080;15.410;2022-11-04T06:03:34;11.30;99.90
34095;DHT22;20372;47.080;15.410;2022-11-04T06:06:00;11.40;99.90
34095;DHT22;20372;47.080;15.410;2022-11-04T06:08:25;11.40;99.90
34095;DHT22;20372;47.080;15.410;2022-11-04T06:10:51;11.40;99.90
34095;DHT22;20372;47.080;15.410;2022-11-04T06:13:16;11.40;99.90
34095;DHT22;20372;47.080;15.410;2022-11-04T06:15:42;11.40;99.90
34095;DHT22;20372;47.080;15.410;2022-11-04T06:18:07;11.40;99.90
34095;DHT22;20372;47.080;15.410;2022-11-04T06:20:33;11.50;99.90
34095;DHT22;20372;47.080;15.410;2022-11-04T06:22:58;11.40;99.90
34095;DHT22;20372;47.080;15.410;2022-11-04T06:25:24;11.50;99.90
34095;DHT22;20372;47.080;15.410;2022-11-04T06:27:50;11.50;99.90
34095;DHT22;20372;47.080;15.410;2022-11-04T06:30:15;11.60;99.90
34095;DHT22;20372;47.080;15.410;2022-11-04T06:32:41;11.60;99.90
34095;DHT22;20372;47.080;15.410;2022-11-04T06:35:06;11.60;99.90
34095;DHT22;20372;47.080;15.410;2022-11-04T06:37:33;11.60;99.90
34095;DHT22;20372;47.080;15.410;2022-11-04T06:39:59;11.60;99.90
34095;DHT22;20372;47.080;15.410;2022-11-04T06:42:24;11.60;99.90
34095;DHT22;20372;47.080;15.410;2022-11-04T06:44:51;11.50;99.90
34095;DHT22;20372;47.080;15.410;2022-11-04T06:47:17;11.50;99.90
34095;DHT22;20372;47.080;15.410;2022-11-04T06:49:43;11.60;99.90
34095;DHT22;20372;47.080;15.410;2022-11-04T06:52:08;11.60;99.90
34095;DHT22;20372;47.080;15.410;2022-11-04T06:54:34;11.60;99.90
34095;DHT22;20372;47.080;15.410;2022-11-04T06:56:59;11.60;99.90
34095;DHT22;20372;47.080;15.410;2022-11-04T06:59:25;11.70;99.90
34095;DHT22;20372;47.080;15.410;2022-11-04T07:01:51;11.70;99.90
34095;DHT22;20372;47.080;15.410;2022-11-04T07:04:16;11.70;99.90
34095;DHT22;20372;47.080;15.410;2022-11-04T07:06:42;11.70;99.90
34095;DHT22;20372;47.080;15.410;2022-11-04T07:09:08;11.70;99.90
34095;DHT22;20372;47.080;15.410;2022-11-04T07:11:35;11.80;99.90
34095;DHT22;20372;47.080;15.410;2022-11-04T07:14:00;11.70;99.90
34095;DHT22;20372;47.080;15.410;2022-11-04T07:16:26;11.70;99.90
34095;DHT22;20372;47.080;15.410;2022-11-04T07:18:53;11.70;99.90
34095;DHT22;20372;47.080;15.410;2022-11-04T07:21:19;11.70;99.90
34095;DHT22;20372;47.080;15.410;2022-11-04T07:23:44;11.80;99.90
34095;DHT22;20372;47.080;15.410;2022-11-04T07:26:10;11.70;99.90
34095;DHT22;20372;47.080;15.410;2022-11-04T07:28:36;11.70;99.90
34095;DHT22;20372;47.080;15.410;2022-11-04T07:31:02;11.70;99.90
34095;DHT22;20372;47.080;15.410;2022-11-04T07:33:28;11.70;99.90
34095;DHT22;20372;47.080;15.410;2022-11-04T07:35:54;11.70;99.90
34095;DHT22;20372;47.080;15.410;2022-11-04T07:38:22;11.70;99.90
34095;DHT22;20372;47.080;15.410;2022-11-04T07:40:48;11.70;99.90
34095;DHT22;20372;47.080;15.410;2022-11-04T07:43:14;11.70;99.90
34095;DHT22;20372;47.080;15.410;2022-11-04T07:45:39;11.70;99.90
34095;DHT22;20372;47.080;15.410;2022-11-04T07:48:05;11.70;99.90
34095;DHT22;20372;47.080;15.410;2022-11-04T07:50:31;11.90;99.90
34095;DHT22;20372;47.080;15.410;2022-11-04T07:52:58;11.70;99.90
34095;DHT22;20372;47.080;15.410;2022-11-04T07:55:23;11.70;99.90
34095;DHT22;20372;47.080;15.410;2022-11-04T07:57:49;11.80;99.90
34095;DHT22;20372;47.080;15.410;2022-11-04T08:00:15;11.70;99.90
34095;DHT22;20372;47.080;15.410;2022-11-04T08:02:41;11.80;99.90
34095;DHT22;20372;47.080;15.410;2022-11-04T08:05:09;11.70;99.90
34095;DHT22;20372;47.080;15.410;2022-11-04T08:07:34;11.80;99.90
34095;DHT22;20372;47.080;15.410;2022-11-04T08:10:00;11.80;99.90
34095;DHT22;20372;47.080;15.410;2022-11-04T08:12:25;11.70;99.90
34095;DHT22;20372;47.080;15.410;2022-11-04T08:14:52;11.70;99.90
34095;DHT22;20372;47.080;15.410;2022-11-04T08:17:17;11.70;99.90
34095;DHT22;20372;47.080;15.410;2022-11-04T08:19:43;11.70;99.90
34095;DHT22;20372;47.080;15.410;2022-11-04T08:22:09;11.70;99.90
34095;DHT22;20372;47.080;15.410;2022-11-04T08:24:34;11.70;99.90
34095;DHT22;20372;47.080;15.410;2022-11-04T08:27:01;11.70;99.90
34095;DHT22;20372;47.080;15.410;2022-11-04T08:29:27;11.70;99.90
34095;DHT22;20372;47.080;15.410;2022-11-04T08:31:52;11.70;99.90
34095;DHT22;20372;47.080;15.410;2022-11-04T08:34:18;11.80;99.90
34095;DHT22;20372;47.080;15.410;2022-11-04T08:36:43;11.80;99.90
34095;DHT22;20372;47.080;15.410;2022-11-04T08:39:10;11.80;99.90
34095;DHT22;20372;47.080;15.410;2022-11-04T08:41:36;11.80;99.90
34095;DHT22;20372;47.080;15.410;2022-11-04T08:44:03;11.80;99.90
34095;DHT22;20372;47.080;15.410;2022-11-04T08:46:31;11.70;99.90
34095;DHT22;20372;47.080;15.410;2022-11-04T08:48:57;11.70;99.90
34095;DHT22;20372;47.080;15.410;2022-11-04T08:51:23;11.70;99.90
34095;DHT22;20372;47.080;15.410;2022-11-04T08:53:49;11.80;99.90
34095;DHT22;20372;47.080;15.410;2022-11-04T08:56:16;11.80;99.90
34095;DHT22;20372;47.080;15.410;2022-11-04T08:58:43;11.90;99.90
34095;DHT22;20372;47.080;15.410;2022-11-04T09:01:08;11.70;99.90
34095;DHT22;20372;47.080;15.410;2022-11-04T09:03:38;11.70;99.90
34095;DHT22;20372;47.080;15.410;2022-11-04T09:06:05;11.70;99.90
34095;DHT22;20372;47.080;15.410;2022-11-04T09:08:31;11.70;99.90
34095;DHT22;20372;47.080;15.410;2022-11-04T09:10:56;11.70;99.90
34095;DHT22;20372;47.080;15.410;2022-11-04T09:13:22;11.70;99.90
34095;DHT22;20372;47.080;15.410;2022-11-04T09:15:47;11.70;99.90
34095;DHT22;20372;47.080;15.410;2022-11-04T09:18:13;11.70;99.90
34095;DHT22;20372;47.080;15.410;2022-11-04T09:20:39;11.70;99.90
34095;DHT22;20372;47.080;15.410;2022-11-04T09:23:06;11.70;99.90
34095;DHT22;20372;47.080;15.410;2022-11-04T09:25:32;11.70;99.90
34095;DHT22;20372;47.080;15.410;2022-11-04T09:27:58;11.70;99.90
34095;DHT22;20372;47.080;15.410;2022-11-04T09:30:24;11.70;99.90
34095;DHT22;20372;47.080;15.410;2022-11-04T09:32:50;11.80;99.90
34095;DHT22;20372;47.080;15.410;2022-11-04T09:35:16;11.70;99.90
34095;DHT22;20372;47.080;15.410;2022-11-04T09:37:42;11.80;99.90
34095;DHT22;20372;47.080;15.410;2022-11-04T09:40:12;11.70;99.90
34095;DHT22;20372;47.080;15.410;2022-11-04T09:45:13;11.70;99.90
34095;DHT22;20372;47.080;15.410;2022-11-04T09:47:41;11.60;99.90
34095;DHT22;20372;47.080;15.410;2022-11-04T09:50:07;11.70;99.90
34095;DHT22;20372;47.080;15.410;2022-11-04T09:52:38;11.70;99.90
34095;DHT22;20372;47.080;15.410;2022-11-04T09:55:12;11.60;99.90
34095;DHT22;20372;47.080;15.410;2022-11-04T09:57:39;11.60;99.90
34095;DHT22;20372;47.080;15.410;2022-11-04T10:00:05;11.60;99.90
34095;DHT22;20372;47.080;15.410;2022-11-04T10:10:05;11.40;99.90
34095;DHT22;20372;47.080;15.410;2022-11-04T10:15:25;11.40;99.90
34095;DHT22;20372;47.080;15.410;2022-11-04T10:17:59;11.30;99.90
34095;DHT22;20372;47.080;15.410;2022-11-04T10:20:31;11.30;99.90
34095;DHT22;20372;47.080;15.410;2022-11-04T10:22:58;11.30;99.90
34095;DHT22;20372;47.080;15.410;2022-11-04T10:25:32;11.30;99.90
34095;DHT22;20372;47.080;15.410;2022-11-04T10:27:58;11.20;99.90
34095;DHT22;20372;47.080;15.410;2022-11-04T10:30:24;11.20;99.90
34095;DHT22;20372;47.080;15.410;2022-11-04T10:35:35;11.30;99.90
34095;DHT22;20372;47.080;15.410;2022-11-04T10:38:24;11.20;99.90
34095;DHT22;20372;47.080;15.410;2022-11-04T10:40:48;11.20;99.90
34095;DHT22;20372;47.080;15.410;2022-11-04T10:43:15;11.20;99.90
34095;DHT22;20372;47.080;15.410;2022-11-04T10:48:12;11.20;99.90
34095;DHT22;20372;47.080;15.410;2022-11-04T10:51:00;11.10;99.90
34095;DHT22;20372;47.080;15.410;2022-11-04T10:53:26;11.10;99.90
34095;DHT22;20372;47.080;15.410;2022-11-04T10:58:26;11.10;99.90
34095;DHT22;20372;47.080;15.410;2022-11-04T11:00:52;11.10;99.90
34095;DHT22;20372;47.080;15.410;2022-11-04T11:03:26;11.10;99.90
34095;DHT22;20372;47.080;15.410;2022-11-04T11:05:52;11.20;99.90
34095;DHT22;20372;47.080;15.410;2022-11-04T12:07:26;11.30;99.90
34095;DHT22;20372;47.080;15.410;2022-11-04T12:10:37;11.30;99.90
34095;DHT22;20372;47.080;15.410;2022-11-04T12:17:56;11.30;99.90
34095;DHT22;20372;47.080;15.410;2022-11-04T12:31:55;11.40;99.90
34095;DHT22;20372;47.080;15.410;2022-11-04T12:42:29;11.40;99.90
34095;DHT22;20372;47.080;15.410;2022-11-04T12:45:10;11.30;99.90
34095;DHT22;20372;47.080;15.410;2022-11-04T12:47:44;11.30;99.90
34095;DHT22;20372;47.080;15.410;2022-11-04T12:57:50;11.30;99.90
34095;DHT22;20372;47.080;15.410;2022-11-04T13:00:20;11.30;99.90
34095;DHT22;20372;47.080;15.410;2022-11-04T13:10:45;11.40;99.90
34095;DHT22;20372;47.080;15.410;2022-11-04T13:13:13;11.40;99.90
34095;DHT22;20372;47.080;15.410;2022-11-04T13:15:42;11.40;99.90
34095;DHT22;20372;47.080;15.410;2022-11-04T13:18:08;11.50;99.90
34095;DHT22;20372;47.080;15.410;2022-11-04T13:20:43;11.40;99.90
34095;DHT22;20372;47.080;15.410;2022-11-04T13:26:02;11.40;99.90
34095;DHT22;20372;47.080;15.410;2022-11-04T13:28:29;11.40;99.90
34095;DHT22;20372;47.080;15.410;2022-11-04T13:31:16;11.40;99.90
34095;DHT22;20372;47.080;15.410;2022-11-04T13:33:48;11.50;99.90
34095;DHT22;20372;47.080;15.410;2022-11-04T13:36:29;11.60;99.90
34095;DHT22;20372;47.080;15.410;2022-11-04T13:38:58;11.60;99.90
34095;DHT22;20372;47.080;15.410;2022-11-04T13:44:17;11.50;99.90
34095;DHT22;20372;47.080;15.410;2022-11-04T13:46:46;11.50;99.90
34095;DHT22;20372;47.080;15.410;2022-11-04T13:51:42;11.60;99.90
34095;DHT22;20372;47.080;15.410;2022-11-04T13:57:02;11.60;99.90
34095;DHT22;20372;47.080;15.410;2022-11-04T13:59:28;11.40;99.90
34095;DHT22;20372;47.080;15.410;2022-11-04T14:04:36;10.60;99.90
34095;DHT22;20372;47.080;15.410;2022-11-04T14:07:03;10.40;99.90
34095;DHT22;20372;47.080;15.410;2022-11-04T14:09:33;10.40;99.90
34095;DHT22;20372;47.080;15.410;2022-11-04T14:14:34;10.20;99.90
34095;DHT22;20372;47.080;15.410;2022-11-04T14:17:00;10.00;99.90
34095;DHT22;20372;47.080;15.410;2022-11-04T14:22:13;9.80;99.90
34095;DHT22;20372;47.080;15.410;2022-11-04T14:24:39;9.50;99.90
34095;DHT22;20372;47.080;15.410;2022-11-04T14:27:05;9.40;99.90
34095;DHT22;20372;47.080;15.410;2022-11-04T14:29:50;9.30;99.90
34095;DHT22;20372;47.080;15.410;2022-11-04T14:32:17;9.20;99.90
34095;DHT22;20372;47.080;15.410;2022-11-04T14:34:47;9.10;99.90
34095;DHT22;20372;47.080;15.410;2022-11-04T14:37:24;9.10;99.90
34095;DHT22;20372;47.080;15.410;2022-11-04T14:39:54;8.90;99.90
34095;DHT22;20372;47.080;15.410;2022-11-04T14:45:06;9.10;99.90
34095;DHT22;20372;47.080;15.410;2022-11-04T14:47:32;9.10;99.90
34095;DHT22;20372;47.080;15.410;2022-11-04T14:52:27;9.00;99.90
34095;DHT22;20372;47.080;15.410;2022-11-04T14:54:55;9.00;99.90
34095;DHT22;20372;47.080;15.410;2022-11-04T14:57:22;8.90;99.90
34095;DHT22;20372;47.080;15.410;2022-11-04T14:59:48;9.00;99.90
34095;DHT22;20372;47.080;15.410;2022-11-04T15:02:34;9.10;99.90
34095;DHT22;20372;47.080;15.410;2022-11-04T15:05:00;9.00;99.90
34095;DHT22;20372;47.080;15.410;2022-11-04T15:07:33;9.00;99.90
34095;DHT22;20372;47.080;15.410;2022-11-04T15:10:00;8.90;99.90
34095;DHT22;20372;47.080;15.410;2022-11-04T15:12:26;9.10;99.90
34095;DHT22;20372;47.080;15.410;2022-11-04T15:15:30;9.10;99.90
34095;DHT22;20372;47.080;15.410;2022-11-04T15:18:00;9.10;99.90
34095;DHT22;20372;47.080;15.410;2022-11-04T15:20:27;9.00;99.90
34095;DHT22;20372;47.080;15.410;2022-11-04T15:22:55;9.00;99.90
34095;DHT22;20372;47.080;15.410;2022-11-04T15:25:21;8.80;99.90
34095;DHT22;20372;47.080;15.410;2022-11-04T15:27:47;9.00;99.90
34095;DHT22;20372;47.080;15.410;2022-11-04T15:30:31;8.90;99.90
34095;DHT22;20372;47.080;15.410;2022-11-04T15:32:58;8.90;99.90
34095;DHT22;20372;47.080;15.410;2022-11-04T15:35:24;9.10;99.90
34095;DHT22;20372;47.080;15.410;2022-11-04T15:37:51;9.10;99.90
34095;DHT22;20372;47.080;15.410;2022-11-04T15:40:18;9.20;99.90
34095;DHT22;20372;47.080;15.410;2022-11-04T15:42:45;9.10;99.90
34095;DHT22;20372;47.080;15.410;2022-11-04T15:47:46;9.10;99.90
34095;DHT22;20372;47.080;15.410;2022-11-04T15:50:30;9.20;99.90
34095;DHT22;20372;47.080;15.410;2022-11-04T15:52:56;9.20;99.90
34095;DHT22;20372;47.080;15.410;2022-11-04T15:55:23;9.20;99.90
34095;DHT22;20372;47.080;15.410;2022-11-04T15:57:49;9.20;99.90
34095;DHT22;20372;47.080;15.410;2022-11-04T16:00:19;9.20;99.90
34095;DHT22;20372;47.080;15.410;2022-11-04T16:07:50;9.10;99.90
34095;DHT22;20372;47.080;15.410;2022-11-04T16:10:49;9.10;99.90
34095;DHT22;20372;47.080;15.410;2022-11-04T16:18:06;9.10;99.90
34095;DHT22;20372;47.080;15.410;2022-11-04T16:20:44;9.10;99.90
34095;DHT22;20372;47.080;15.410;2022-11-04T16:23:17;9.20;99.90
34095;DHT22;20372;47.080;15.410;2022-11-04T16:25:43;9.30;99.90
34095;DHT22;20372;47.080;15.410;2022-11-04T16:28:17;9.30;99.90
34095;DHT22;20372;47.080;15.410;2022-11-04T16:30:54;9.30;99.90
34095;DHT22;20372;47.080;15.410;2022-11-04T16:33:20;9.30;99.90
34095;DHT22;20372;47.080;15.410;2022-11-04T16:35:46;9.40;99.90
34095;DHT22;20372;47.080;15.410;2022-11-04T16:38:11;9.40;99.90
34095;DHT22;20372;47.080;15.410;2022-11-04T16:40:37;9.40;99.90
34095;DHT22;20372;47.080;15.410;2022-11-04T16:43:02;9.40;99.90
34095;DHT22;20372;47.080;15.410;2022-11-04T16:45:29;9.40;99.90
34095;DHT22;20372;47.080;15.410;2022-11-04T16:47:55;9.40;99.90
34095;DHT22;20372;47.080;15.410;2022-11-04T16:50:21;9.20;99.90
34095;DHT22;20372;47.080;15.410;2022-11-04T16:52:48;9.30;99.90
34095;DHT22;20372;47.080;15.410;2022-11-04T16:55:15;9.30;99.90
34095;DHT22;20372;47.080;15.410;2022-11-04T16:57:42;9.20;99.90
34095;DHT22;20372;47.080;15.410;2022-11-04T17:00:11;9.10;99.90
34095;DHT22;20372;47.080;15.410;2022-11-04T17:02:41;9.10;99.90
34095;DHT22;20372;47.080;15.410;2022-11-04T17:05:07;9.20;99.90
34095;DHT22;20372;47.080;15.410;2022-11-04T17:07:35;9.10;99.90
34095;DHT22;20372;47.080;15.410;2022-11-04T17:10:02;9.10;99.90
34095;DHT22;20372;47.080;15.410;2022-11-04T17:12:28;9.10;99.90
34095;DHT22;20372;47.080;15.410;2022-11-04T17:14:54;9.10;99.90
34095;DHT22;20372;47.080;15.410;2022-11-04T17:17:19;9.10;99.90
34095;DHT22;20372;47.080;15.410;2022-11-04T17:19:45;9.20;99.90
34095;DHT22;20372;47.080;15.410;2022-11-04T17:22:10;9.10;99.90
34095;DHT22;20372;47.080;15.410;2022-11-04T17:24:36;9.10;99.90
34095;DHT22;20372;47.080;15.410;2022-11-04T17:27:02;9.20;99.90
34095;DHT22;20372;47.080;15.410;2022-11-04T17:29:28;9.10;99.90
34095;DHT22;20372;47.080;15.410;2022-11-04T17:31:54;9.10;99.90
34095;DHT22;20372;47.080;15.410;2022-11-04T17:34:20;9.20;99.90
34095;DHT22;20372;47.080;15.410;2022-11-04T17:36:50;9.10;99.90
34095;DHT22;20372;47.080;15.410;2022-11-04T17:39:16;9.10;99.90
34095;DHT22;20372;47.080;15.410;2022-11-04T17:41:42;9.20;99.90
34095;DHT22;20372;47.080;15.410;2022-11-04T17:44:26;9.10;99.90
34095;DHT22;20372;47.080;15.410;2022-11-04T17:46:51;9.10;99.90
34095;DHT22;20372;47.080;15.410;2022-11-04T17:49:18;9.10;99.90
34095;DHT22;20372;47.080;15.410;2022-11-04T17:51:48;9.10;99.90
34095;DHT22;20372;47.080;15.410;2022-11-04T17:54:15;9.30;99.90
34095;DHT22;20372;47.080;15.410;2022-11-04T17:56:41;9.30;99.90
34095;DHT22;20372;47.080;15.410;2022-11-04T17:59:07;9.30;99.90
34095;DHT22;20372;47.080;15.410;2022-11-04T18:01:33;9.30;99.90
34095;DHT22;20372;47.080;15.410;2022-11-04T18:03:59;9.30;99.90
34095;DHT22;20372;47.080;15.410;2022-11-04T18:06:25;9.30;99.90
34095;DHT22;20372;47.080;15.410;2022-11-04T18:08:54;9.30;99.90
34095;DHT22;20372;47.080;15.410;2022-11-04T18:11:20;9.20;99.90
34095;DHT22;20372;47.080;15.410;2022-11-04T18:14:04;9.20;99.90
34095;DHT22;20372;47.080;15.410;2022-11-04T18:16:30;9.10;99.90
34095;DHT22;20372;47.080;15.410;2022-11-04T18:18:58;9.10;99.90
34095;DHT22;20372;47.080;15.410;2022-11-04T18:21:25;9.20;99.90
34095;DHT22;20372;47.080;15.410;2022-11-04T18:23:51;9.10;99.90
34095;DHT22;20372;47.080;15.410;2022-11-04T18:26:16;9.10;99.90
34095;DHT22;20372;47.080;15.410;2022-11-04T18:28:43;9.10;99.90
34095;DHT22;20372;47.080;15.410;2022-11-04T18:31:09;9.00;99.90
34095;DHT22;20372;47.080;15.410;2022-11-04T18:33:36;9.10;99.90
34095;DHT22;20372;47.080;15.410;2022-11-04T18:36:04;9.10;99.90
34095;DHT22;20372;47.080;15.410;2022-11-04T18:38:30;9.10;99.90
34095;DHT22;20372;47.080;15.410;2022-11-04T18:40:56;9.10;99.90
34095;DHT22;20372;47.080;15.410;2022-11-04T18:43:22;9.00;99.90
34095;DHT22;20372;47.080;15.410;2022-11-04T18:45:48;9.10;99.90